Time;durP1;ratioP1;P1;durP2;ratioP2;P2;SDS_P1;SDS_P2;PMS_P1;PMS_P2;Temp;Humidity;BMP_temperature;BMP_pressure;BME280_temperature;BME280_humidity;BME280_pressure;Samples;Min_cycle;Max_cycle;Signal;HPM_P1;HPM_P2
2023/06/28 00:01:09;;;;;;;4.43;1.80;;;;;;;;;;5047663;28;20056;-76
2023/06/28 00:03:35;;;;;;;2.83;1.77;;;;;;;;;;5044335;28;20060;-76
2023/06/28 00:06:01;;;;;;;3.05;2.10;;;;;;;;;;5036772;28;20172;-76
2023/06/28 00:08:27;;;;;;;2.60;1.95;;;;;;;;;;5055917;28;20123;-76
2023/06/28 00:10:55;;;;;;;2.25;2.05;;;;;;;;;;5039436;28;20140;-77
2023/06/28 00:13:21;;;;;;;2.05;1.83;;;;;;;;;;5042975;28;20080;-76
2023/06/28 00:15:48;;;;;;;3.10;1.95;;;;;;;;;;5052848;28;20049;-76
2023/06/28 00:18:14;;;;;;;5.70;2.10;;;;;;;;;;5049068;28;20413;-76
2023/06/28 00:20:44;;;;;;;3.08;2.00;;;;;;;;;;5046918;28;20094;-77
2023/06/28 00:23:11;;;;;;;5.68;2.30;;;;;;;;;;5054503;28;20056;-76
2023/06/28 00:25:37;;;;;;;4.78;2.00;;;;;;;;;;5044960;28;20071;-76
2023/06/28 00:28:04;;;;;;;3.75;1.95;;;;;;;;;;5046822;28;20175;-75
2023/06/28 00:30:30;;;;;;;2.88;2.10;;;;;;;;;;5048470;28;20045;-76
2023/06/28 00:32:56;;;;;;;5.07;2.10;;;;;;;;;;5042931;28;20056;-75
2023/06/28 00:35:22;;;;;;;2.25;1.83;;;;;;;;;;5049600;28;20060;-75
2023/06/28 00:37:48;;;;;;;3.13;2.05;;;;;;;;;;5045786;28;20048;-76
2023/06/28 00:40:20;;;;;;;3.10;1.92;;;;;;;;;;5049916;28;20041;-78
2023/06/28 00:42:46;;;;;;;4.88;1.95;;;;;;;;;;5061488;28;20183;-76
2023/06/28 00:45:13;;;;;;;3.47;1.92;;;;;;;;;;5053463;28;20048;-76
2023/06/28 00:47:40;;;;;;;3.88;2.03;;;;;;;;;;5052560;28;20037;-75
2023/06/28 00:50:07;;;;;;;3.38;1.90;;;;;;;;;;5050250;28;20067;-76
2023/06/28 00:52:33;;;;;;;2.22;1.95;;;;;;;;;;5045636;28;20059;-76
2023/06/28 00:55:00;;;;;;;4.13;2.25;;;;;;;;;;5066207;28;20041;-76
2023/06/28 00:57:26;;;;;;;6.07;2.17;;;;;;;;;;5046131;28;20045;-76
2023/06/28 00:59:53;;;;;;;3.10;2.00;;;;;;;;;;5058595;28;20132;-75
2023/06/28 01:02:19;;;;;;;3.05;2.00;;;;;;;;;;5078845;28;20401;-76
2023/06/28 01:04:45;;;;;;;3.30;1.80;;;;;;;;;;5049224;28;20145;-76
2023/06/28 01:07:12;;;;;;;5.13;2.67;;;;;;;;;;5050142;28;20044;-76
2023/06/28 01:09:38;;;;;;;4.15;2.00;;;;;;;;;;5050836;28;20044;-75
2023/06/28 01:12:05;;;;;;;3.20;1.88;;;;;;;;;;5049285;28;20088;-75
2023/06/28 01:14:31;;;;;;;4.60;2.42;;;;;;;;;;5051151;28;20040;-75
2023/06/28 01:16:57;;;;;;;2.88;2.20;;;;;;;;;;5038777;28;20124;-75
2023/06/28 01:19:27;;;;;;;6.03;2.42;;;;;;;;;;5053825;28;20485;-75
2023/06/28 01:21:56;;;;;;;3.33;2.05;;;;;;;;;;5049162;28;20515;-76
2023/06/28 01:24:22;;;;;;;2.95;2.25;;;;;;;;;;5048316;28;20076;-75
2023/06/28 01:26:58;;;;;;;3.78;2.20;;;;;;;;;;5053291;28;20400;-76
2023/06/28 01:29:24;;;;;;;5.40;2.33;;;;;;;;;;5050006;28;20076;-75
2023/06/28 01:31:54;;;;;;;5.15;2.40;;;;;;;;;;5049131;28;20451;-75
2023/06/28 01:34:22;;;;;;;5.13;2.50;;;;;;;;;;5052335;28;20044;-75
2023/06/28 01:36:48;;;;;;;6.47;2.50;;;;;;;;;;5039219;28;20045;-76
2023/06/28 01:39:15;;;;;;;7.32;2.60;;;;;;;;;;5049616;28;20053;-75
2023/06/28 01:41:42;;;;;;;4.65;2.30;;;;;;;;;;5051917;28;20444;-76
2023/06/28 01:44:08;;;;;;;4.90;2.60;;;;;;;;;;5067311;28;20114;-75
2023/06/28 01:46:35;;;;;;;4.53;2.50;;;;;;;;;;5049982;28;20044;-75
2023/06/28 01:49:01;;;;;;;5.20;2.67;;;;;;;;;;5055611;28;20060;-75
2023/06/28 01:51:27;;;;;;;5.97;2.85;;;;;;;;;;5052146;28;20045;-75
2023/06/28 01:53:54;;;;;;;2.97;2.28;;;;;;;;;;5049796;28;20052;-75
2023/06/28 01:56:20;;;;;;;6.00;2.70;;;;;;;;;;5046041;28;20052;-76
2023/06/28 01:58:46;;;;;;;4.18;2.60;;;;;;;;;;5049116;28;20504;-76
2023/06/28 02:01:13;;;;;;;5.03;2.65;;;;;;;;;;5051907;28;20101;-75
2023/06/28 02:03:39;;;;;;;4.40;2.70;;;;;;;;;;5047315;28;20037;-75
2023/06/28 02:06:05;;;;;;;5.78;2.70;;;;;;;;;;5058095;28;20127;-76
2023/06/28 02:08:31;;;;;;;7.13;2.95;;;;;;;;;;5044464;28;20051;-75
2023/06/28 02:10:57;;;;;;;6.53;2.90;;;;;;;;;;5051712;28;20037;-76
2023/06/28 02:13:23;;;;;;;4.78;3.03;;;;;;;;;;5046940;28;20480;-75
2023/06/28 02:15:49;;;;;;;6.28;3.17;;;;;;;;;;5058562;28;20119;-75
2023/06/28 02:18:16;;;;;;;6.95;3.13;;;;;;;;;;5048313;28;20129;-75
2023/06/28 02:20:43;;;;;;;4.90;2.72;;;;;;;;;;5049386;28;20456;-76
2023/06/28 02:23:09;;;;;;;7.43;3.15;;;;;;;;;;5050684;28;20045;-75
2023/06/28 02:25:35;;;;;;;4.43;2.88;;;;;;;;;;5045236;28;20040;-75
2023/06/28 02:28:01;;;;;;;5.32;3.30;;;;;;;;;;5050604;28;20045;-75
2023/06/28 02:30:27;;;;;;;4.60;2.80;;;;;;;;;;5050402;28;20040;-75
2023/06/28 02:32:53;;;;;;;4.53;2.80;;;;;;;;;;5068148;28;20079;-75
2023/06/28 02:35:19;;;;;;;6.68;2.90;;;;;;;;;;5043321;28;20052;-74
2023/06/28 02:37:45;;;;;;;6.50;3.20;;;;;;;;;;5060992;28;20048;-75
2023/06/28 02:40:14;;;;;;;7.35;2.80;;;;;;;;;;5052333;28;20048;-75
2023/06/28 02:42:40;;;;;;;6.82;3.00;;;;;;;;;;5055445;28;20053;-76
2023/06/28 02:45:06;;;;;;;5.90;3.20;;;;;;;;;;5050069;28;20137;-75
2023/06/28 02:47:32;;;;;;;4.78;3.20;;;;;;;;;;5076338;28;20124;-75
2023/06/28 02:50:04;;;;;;;6.00;3.30;;;;;;;;;;5049798;28;20048;-75
2023/06/28 02:52:30;;;;;;;5.97;3.70;;;;;;;;;;5060911;28;20064;-75
2023/06/28 02:54:59;;;;;;;6.05;3.38;;;;;;;;;;5044151;28;20045;-74
2023/06/28 02:57:25;;;;;;;5.50;3.50;;;;;;;;;;5037284;28;20117;-75
2023/06/28 02:59:51;;;;;;;7.25;3.60;;;;;;;;;;5049957;28;20045;-75
2023/06/28 03:02:17;;;;;;;6.15;3.55;;;;;;;;;;5050603;28;20041;-75
2023/06/28 03:04:43;;;;;;;7.32;3.25;;;;;;;;;;5051016;28;20063;-75
2023/06/28 03:07:13;;;;;;;7.07;3.70;;;;;;;;;;5050530;28;20113;-75
2023/06/28 03:09:39;;;;;;;4.90;3.40;;;;;;;;;;5054422;28;20226;-75
2023/06/28 03:12:05;;;;;;;7.18;3.70;;;;;;;;;;5055456;28;20510;-75
2023/06/28 03:14:31;;;;;;;9.50;3.80;;;;;;;;;;5050838;28;20477;-75
2023/06/28 03:16:57;;;;;;;7.47;4.03;;;;;;;;;;5046325;28;20052;-74
2023/06/28 03:19:23;;;;;;;9.90;3.85;;;;;;;;;;5052834;28;20044;-75
2023/06/28 03:21:49;;;;;;;7.13;3.17;;;;;;;;;;5049319;28;20052;-76
2023/06/28 03:24:15;;;;;;;7.05;3.53;;;;;;;;;;5048000;28;20056;-76
2023/06/28 03:26:42;;;;;;;8.50;3.80;;;;;;;;;;5047931;28;20146;-76
2023/06/28 03:29:08;;;;;;;8.02;3.58;;;;;;;;;;5053202;28;20186;-75
2023/06/28 03:31:34;;;;;;;6.78;3.50;;;;;;;;;;5046629;28;20507;-75
2023/06/28 03:34:00;;;;;;;8.85;3.53;;;;;;;;;;5043716;28;20600;-75
2023/06/28 03:36:27;;;;;;;7.10;3.53;;;;;;;;;;5048149;28;20045;-75
2023/06/28 03:38:54;;;;;;;6.00;3.45;;;;;;;;;;5047879;28;20032;-75
2023/06/28 03:41:21;;;;;;;7.03;4.15;;;;;;;;;;5054692;28;20049;-76
2023/06/28 03:43:47;;;;;;;8.70;4.15;;;;;;;;;;5047102;28;20045;-75
2023/06/28 03:46:13;;;;;;;7.15;3.70;;;;;;;;;;5079562;28;20461;-75
2023/06/28 03:48:39;;;;;;;8.15;3.88;;;;;;;;;;5055514;28;20057;-75
2023/06/28 03:51:05;;;;;;;10.88;4.50;;;;;;;;;;5043373;28;20517;-75
2023/06/28 03:53:31;;;;;;;8.07;4.35;;;;;;;;;;5082236;28;20040;-75
2023/06/28 03:55:57;;;;;;;5.93;4.22;;;;;;;;;;5048845;28;20047;-76
2023/06/28 03:58:23;;;;;;;6.68;4.10;;;;;;;;;;5037050;28;20048;-75
2023/06/28 04:00:49;;;;;;;8.40;4.22;;;;;;;;;;5058660;28;20514;-76
2023/06/28 04:03:15;;;;;;;9.90;4.80;;;;;;;;;;5062933;28;20496;-76
2023/06/28 04:05:42;;;;;;;9.43;4.63;;;;;;;;;;5048489;28;20481;-76
2023/06/28 04:08:09;;;;;;;10.00;4.43;;;;;;;;;;5053369;28;20512;-75
2023/06/28 04:10:35;;;;;;;8.25;4.40;;;;;;;;;;5049564;28;20060;-76
2023/06/28 04:13:01;;;;;;;11.25;5.13;;;;;;;;;;5048006;28;20140;-75
2023/06/28 04:15:27;;;;;;;8.25;4.88;;;;;;;;;;5055773;28;20077;-76
2023/06/28 04:17:53;;;;;;;11.32;4.47;;;;;;;;;;5071401;28;20099;-75
2023/06/28 04:20:19;;;;;;;12.50;4.45;;;;;;;;;;5043755;28;20603;-75
2023/06/28 04:22:45;;;;;;;10.13;4.47;;;;;;;;;;5052918;28;20400;-76
2023/06/28 04:25:12;;;;;;;10.40;4.70;;;;;;;;;;5053221;28;20094;-76
2023/06/28 04:27:38;;;;;;;9.63;5.22;;;;;;;;;;5064153;28;20041;-75
2023/06/28 04:30:04;;;;;;;8.50;4.60;;;;;;;;;;5046951;28;20037;-76
2023/06/28 04:32:31;;;;;;;10.68;4.85;;;;;;;;;;5065250;28;20682;-76
2023/06/28 04:34:59;;;;;;;11.35;5.00;;;;;;;;;;5052398;28;20049;-76
2023/06/28 04:37:31;;;;;;;11.18;5.72;;;;;;;;;;5049760;28;20060;-76
2023/06/28 04:40:01;;;;;;;9.85;5.30;;;;;;;;;;5046563;28;20397;-77
2023/06/28 04:42:27;;;;;;;10.85;6.03;;;;;;;;;;5049592;28;21431;-77
2023/06/28 04:44:59;;;;;;;12.77;6.63;;;;;;;;;;5055084;28;20059;-77
2023/06/28 04:47:26;;;;;;;12.18;6.22;;;;;;;;;;5046369;28;20366;-76
2023/06/28 04:49:52;;;;;;;14.43;6.65;;;;;;;;;;5054967;28;20041;-77
2023/06/28 04:52:19;;;;;;;10.93;6.28;;;;;;;;;;5084872;28;20110;-76
2023/06/28 04:54:46;;;;;;;9.80;6.43;;;;;;;;;;5051296;28;20045;-77
2023/06/28 04:57:13;;;;;;;12.55;7.10;;;;;;;;;;5049461;28;20053;-76
2023/06/28 04:59:39;;;;;;;10.43;6.38;;;;;;;;;;5057524;28;20123;-76
2023/06/28 05:02:05;;;;;;;11.88;5.55;;;;;;;;;;5082667;28;20045;-76
2023/06/28 05:04:35;;;;;;;9.18;5.60;;;;;;;;;;5058839;28;20042;-76
2023/06/28 05:07:04;;;;;;;8.95;5.07;;;;;;;;;;5062012;28;20049;-76
2023/06/28 05:09:30;;;;;;;11.10;5.75;;;;;;;;;;5060539;28;20481;-76
2023/06/28 05:11:56;;;;;;;8.55;4.93;;;;;;;;;;5067365;28;20086;-76
2023/06/28 05:14:22;;;;;;;10.60;6.63;;;;;;;;;;5051293;28;20564;-76
2023/06/28 05:16:48;;;;;;;22.63;15.32;;;;;;;;;;5049493;28;20144;-76
2023/06/28 05:19:14;;;;;;;11.77;5.25;;;;;;;;;;5051676;28;20132;-76
2023/06/28 05:21:40;;;;;;;11.68;6.10;;;;;;;;;;5044613;28;20136;-76
2023/06/28 05:24:07;;;;;;;9.98;5.30;;;;;;;;;;5051117;28;20037;-75
2023/06/28 05:26:33;;;;;;;10.80;5.03;;;;;;;;;;5050047;28;20083;-75
2023/06/28 05:28:59;;;;;;;11.80;6.10;;;;;;;;;;5050960;28;20080;-76
2023/06/28 05:31:25;;;;;;;9.55;5.30;;;;;;;;;;5052126;28;20060;-75
2023/06/28 05:33:51;;;;;;;11.23;5.97;;;;;;;;;;5052032;28;20090;-76
2023/06/28 05:36:20;;;;;;;11.73;5.63;;;;;;;;;;5041757;28;20037;-76
2023/06/28 05:38:46;;;;;;;14.55;5.90;;;;;;;;;;5046022;28;20037;-76
2023/06/28 05:41:13;;;;;;;10.45;5.68;;;;;;;;;;5051958;28;20075;-76
2023/06/28 05:43:39;;;;;;;10.73;5.70;;;;;;;;;;5048604;28;20044;-75
2023/06/28 05:46:05;;;;;;;9.90;4.95;;;;;;;;;;5063332;28;20047;-75
2023/06/28 05:48:31;;;;;;;10.25;5.80;;;;;;;;;;5060550;28;20051;-76
2023/06/28 05:50:58;;;;;;;11.00;6.03;;;;;;;;;;5066335;28;20045;-76
2023/06/28 05:53:24;;;;;;;9.20;5.78;;;;;;;;;;5069811;28;20512;-75
2023/06/28 05:55:50;;;;;;;9.82;6.05;;;;;;;;;;5048043;28;20076;-75
2023/06/28 05:58:18;;;;;;;10.45;5.75;;;;;;;;;;5052698;28;20049;-76
2023/06/28 06:00:44;;;;;;;12.52;5.60;;;;;;;;;;5060755;28;20098;-75
2023/06/28 06:03:10;;;;;;;12.77;5.82;;;;;;;;;;5055179;28;20063;-76
2023/06/28 06:05:37;;;;;;;9.43;5.45;;;;;;;;;;5056778;28;20167;-75
2023/06/28 06:08:04;;;;;;;11.70;5.75;;;;;;;;;;5050388;28;20045;-75
2023/06/28 06:10:30;;;;;;;7.68;5.13;;;;;;;;;;5049231;28;20388;-75
2023/06/28 06:12:56;;;;;;;11.25;5.70;;;;;;;;;;5048046;28;20156;-75
2023/06/28 06:15:22;;;;;;;9.77;6.20;;;;;;;;;;5042656;28;20840;-75
2023/06/28 06:17:48;;;;;;;13.82;5.88;;;;;;;;;;5073857;28;20454;-76
2023/06/28 06:20:15;;;;;;;8.85;5.82;;;;;;;;;;5050117;28;20522;-75
2023/06/28 06:22:41;;;;;;;9.13;6.03;;;;;;;;;;5057683;28;20055;-75
2023/06/28 06:25:08;;;;;;;10.80;6.45;;;;;;;;;;5053042;28;20045;-75
2023/06/28 06:27:34;;;;;;;9.60;6.60;;;;;;;;;;5051720;28;20049;-75
2023/06/28 06:30:00;;;;;;;11.05;7.00;;;;;;;;;;5049339;28;20061;-75
2023/06/28 06:32:26;;;;;;;10.18;6.55;;;;;;;;;;5049867;28;20045;-74
2023/06/28 06:34:53;;;;;;;10.13;5.90;;;;;;;;;;5045339;28;20048;-74
2023/06/28 06:37:20;;;;;;;8.95;5.82;;;;;;;;;;5037927;28;20053;-75
2023/06/28 06:39:46;;;;;;;10.98;6.18;;;;;;;;;;5049200;28;20083;-75
2023/06/28 06:42:12;;;;;;;9.73;5.93;;;;;;;;;;5059347;28;20682;-76
2023/06/28 06:44:38;;;;;;;10.52;6.30;;;;;;;;;;5035195;28;20612;-74
2023/06/28 06:47:04;;;;;;;11.55;5.80;;;;;;;;;;5070820;28;20040;-74
2023/06/28 06:49:30;;;;;;;10.63;5.63;;;;;;;;;;5054938;28;20480;-74
2023/06/28 06:51:56;;;;;;;8.77;6.05;;;;;;;;;;5037516;28;20408;-74
2023/06/28 06:54:24;;;;;;;9.38;5.90;;;;;;;;;;5049641;28;20496;-74
2023/06/28 06:56:50;;;;;;;8.35;5.47;;;;;;;;;;5058465;28;20049;-75
2023/06/28 06:59:19;;;;;;;8.68;6.00;;;;;;;;;;5045384;28;20052;-74
2023/06/28 07:01:46;;;;;;;10.52;6.00;;;;;;;;;;5047524;28;20053;-74
2023/06/28 07:04:12;;;;;;;11.77;5.95;;;;;;;;;;5015064;28;20049;-74
2023/06/28 07:06:39;;;;;;;8.95;5.57;;;;;;;;;;5045079;28;20046;-74
2023/06/28 07:09:05;;;;;;;7.72;5.72;;;;;;;;;;5050661;28;20044;-74
2023/06/28 07:11:31;;;;;;;9.88;6.40;;;;;;;;;;5038054;28;20068;-74
2023/06/28 07:13:57;;;;;;;9.40;6.43;;;;;;;;;;5072226;28;20041;-74
2023/06/28 07:16:23;;;;;;;9.90;5.85;;;;;;;;;;5031793;28;20053;-73
2023/06/28 07:18:50;;;;;;;8.48;5.40;;;;;;;;;;5040458;28;20037;-74
2023/06/28 07:21:16;;;;;;;8.27;5.85;;;;;;;;;;5050273;28;20048;-74
2023/06/28 07:23:42;;;;;;;10.80;5.72;;;;;;;;;;5038573;28;20106;-74
2023/06/28 07:26:08;;;;;;;7.40;5.78;;;;;;;;;;5070817;28;20052;-74
2023/06/28 07:28:34;;;;;;;8.85;5.30;;;;;;;;;;5057245;28;20603;-74
2023/06/28 07:31:01;;;;;;;7.38;5.25;;;;;;;;;;5061791;28;20086;-73
2023/06/28 07:33:28;;;;;;;8.95;5.63;;;;;;;;;;5068056;28;20056;-74
2023/06/28 07:35:54;;;;;;;7.57;5.55;;;;;;;;;;5020668;28;20048;-74
2023/06/28 07:38:20;;;;;;;8.40;5.18;;;;;;;;;;5052877;28;20090;-74
2023/06/28 07:40:46;;;;;;;6.63;5.03;;;;;;;;;;5043218;28;20055;-74
2023/06/28 07:43:16;;;;;;;6.15;4.97;;;;;;;;;;5058955;28;20114;-75
2023/06/28 07:45:42;;;;;;;7.85;5.30;;;;;;;;;;5061533;28;20449;-75
2023/06/28 07:48:09;;;;;;;8.10;5.55;;;;;;;;;;5045254;28;20088;-75
2023/06/28 07:50:35;;;;;;;7.78;5.25;;;;;;;;;;5042320;28;20049;-75
2023/06/28 07:53:02;;;;;;;8.40;5.63;;;;;;;;;;5067928;28;20041;-75
2023/06/28 07:55:28;;;;;;;9.20;6.15;;;;;;;;;;5049646;28;20404;-74
2023/06/28 07:57:57;;;;;;;8.88;6.72;;;;;;;;;;5048591;28;20037;-74
2023/06/28 08:00:23;;;;;;;9.48;6.55;;;;;;;;;;5057087;28;20094;-75
2023/06/28 08:02:49;;;;;;;9.15;6.45;;;;;;;;;;5049301;28;20051;-75
2023/06/28 08:05:15;;;;;;;10.40;6.63;;;;;;;;;;5031514;28;20062;-75
2023/06/28 08:07:41;;;;;;;8.70;6.20;;;;;;;;;;5077223;28;20381;-76
2023/06/28 08:10:08;;;;;;;10.75;6.40;;;;;;;;;;5038775;28;20068;-75
2023/06/28 08:12:34;;;;;;;9.20;6.65;;;;;;;;;;5041248;28;20044;-75
2023/06/28 08:15:00;;;;;;;8.80;6.40;;;;;;;;;;5082550;28;20057;-75
2023/06/28 08:17:26;;;;;;;10.88;7.35;;;;;;;;;;5052523;28;20049;-75
2023/06/28 08:19:54;;;;;;;9.90;6.55;;;;;;;;;;5031103;28;20095;-75
2023/06/28 08:22:26;;;;;;;12.18;6.97;;;;;;;;;;5040504;28;20049;-76
2023/06/28 08:24:52;;;;;;;10.95;6.95;;;;;;;;;;5031102;28;20556;-76
2023/06/28 08:27:18;;;;;;;10.75;7.43;;;;;;;;;;5054906;28;20106;-76
2023/06/28 08:29:44;;;;;;;13.70;7.22;;;;;;;;;;5060868;28;20078;-76
2023/06/28 08:32:10;;;;;;;12.40;7.75;;;;;;;;;;5044566;28;20139;-76
2023/06/28 08:34:37;;;;;;;10.40;7.05;;;;;;;;;;5048452;28;20572;-75
2023/06/28 08:37:03;;;;;;;11.35;7.43;;;;;;;;;;5051322;28;20049;-75
2023/06/28 08:39:30;;;;;;;13.88;7.57;;;;;;;;;;5062949;28;20978;-76
2023/06/28 08:41:56;;;;;;;12.50;7.70;;;;;;;;;;5043483;28;20059;-76
2023/06/28 08:44:26;;;;;;;8.63;6.88;;;;;;;;;;5055604;28;20080;-76
2023/06/28 08:46:54;;;;;;;11.70;7.65;;;;;;;;;;5051809;28;20063;-76
2023/06/28 08:49:20;;;;;;;13.13;7.95;;;;;;;;;;5047731;28;20127;-75
2023/06/28 08:51:46;;;;;;;11.23;7.85;;;;;;;;;;5045667;28;20078;-76
2023/06/28 08:54:13;;;;;;;12.43;7.65;;;;;;;;;;5040135;28;20278;-76
2023/06/28 08:56:39;;;;;;;11.07;8.25;;;;;;;;;;5049749;28;20082;-76
2023/06/28 08:59:06;;;;;;;11.43;8.50;;;;;;;;;;5052305;28;20040;-75
2023/06/28 09:01:33;;;;;;;14.88;8.57;;;;;;;;;;5053981;28;20041;-77
2023/06/28 09:04:00;;;;;;;13.30;9.65;;;;;;;;;;5050374;28;20045;-75
2023/06/28 09:06:28;;;;;;;13.40;9.20;;;;;;;;;;5055258;28;20049;-75
2023/06/28 09:08:54;;;;;;;12.48;9.13;;;;;;;;;;5052941;28;20052;-75
2023/06/28 09:11:20;;;;;;;14.05;10.05;;;;;;;;;;5043566;28;20064;-76
2023/06/28 09:13:46;;;;;;;13.93;9.68;;;;;;;;;;5053073;28;20456;-76
2023/06/28 09:16:13;;;;;;;16.33;10.75;;;;;;;;;;5081641;28;20067;-76
2023/06/28 09:18:39;;;;;;;16.05;11.80;;;;;;;;;;5045714;28;20044;-77
2023/06/28 09:21:05;;;;;;;15.98;11.98;;;;;;;;;;5049280;28;20041;-76
2023/06/28 09:23:32;;;;;;;15.85;11.98;;;;;;;;;;5049657;28;20053;-76
2023/06/28 09:25:58;;;;;;;16.50;11.80;;;;;;;;;;5051231;28;20485;-76
2023/06/28 09:28:25;;;;;;;17.58;12.45;;;;;;;;;;5047940;28;20090;-76
2023/06/28 09:30:57;;;;;;;17.58;12.35;;;;;;;;;;5033944;28;20051;-77
2023/06/28 09:33:24;;;;;;;21.73;13.20;;;;;;;;;;5048687;28;20083;-77
2023/06/28 09:35:53;;;;;;;19.70;12.68;;;;;;;;;;5052578;28;20043;-76
2023/06/28 09:38:20;;;;;;;16.50;13.25;;;;;;;;;;5039764;28;20123;-76
2023/06/28 09:40:53;;;;;;;20.98;13.60;;;;;;;;;;5048087;28;20094;-76
2023/06/28 09:43:19;;;;;;;20.90;14.80;;;;;;;;;;5050711;28;20080;-75
2023/06/28 09:45:45;;;;;;;20.83;15.43;;;;;;;;;;5048557;28;20100;-76
2023/06/28 09:48:11;;;;;;;21.17;15.15;;;;;;;;;;5040721;28;20072;-76
2023/06/28 09:50:37;;;;;;;19.50;15.82;;;;;;;;;;5053456;28;20045;-76
2023/06/28 09:53:08;;;;;;;22.67;16.92;;;;;;;;;;5051182;28;20115;-76
2023/06/28 09:55:34;;;;;;;21.65;16.13;;;;;;;;;;5046432;28;20064;-76
2023/06/28 09:58:00;;;;;;;24.95;16.77;;;;;;;;;;5048970;28;20401;-76
2023/06/28 10:00:28;;;;;;;24.65;17.27;;;;;;;;;;5043913;28;20045;-75
2023/06/28 10:02:54;;;;;;;24.60;17.48;;;;;;;;;;5034247;28;20476;-76
2023/06/28 10:05:20;;;;;;;20.75;15.73;;;;;;;;;;5033505;28;20054;-76
2023/06/28 10:07:47;;;;;;;23.98;18.00;;;;;;;;;;5034558;28;20041;-77
2023/06/28 10:10:13;;;;;;;23.27;17.67;;;;;;;;;;5044952;28;20344;-76
2023/06/28 10:12:40;;;;;;;21.67;17.27;;;;;;;;;;5051932;28;20044;-76
2023/06/28 10:15:10;;;;;;;24.17;16.20;;;;;;;;;;5055838;28;20056;-77
2023/06/28 10:17:37;;;;;;;27.48;17.63;;;;;;;;;;5039460;28;20037;-75
2023/06/28 10:20:04;;;;;;;24.98;17.95;;;;;;;;;;5041521;28;20397;-75
2023/06/28 10:22:30;;;;;;;23.02;16.52;;;;;;;;;;5045132;28;20052;-76
2023/06/28 10:24:57;;;;;;;24.15;17.75;;;;;;;;;;5046429;28;20497;-76
2023/06/28 10:27:23;;;;;;;28.20;18.60;;;;;;;;;;5036541;28;20375;-76
2023/06/28 10:29:50;;;;;;;24.63;18.10;;;;;;;;;;5042285;28;20037;-77
2023/06/28 10:32:16;;;;;;;24.70;17.88;;;;;;;;;;5038451;28;20103;-76
2023/06/28 10:34:46;;;;;;;25.65;17.85;;;;;;;;;;5039882;28;20068;-77
2023/06/28 10:37:12;;;;;;;25.95;17.98;;;;;;;;;;5040288;28;20370;-77
2023/06/28 10:39:39;;;;;;;26.88;18.75;;;;;;;;;;5042876;28;20045;-76
2023/06/28 10:42:06;;;;;;;24.02;17.60;;;;;;;;;;5045027;28;20409;-76
2023/06/28 10:44:33;;;;;;;22.88;16.77;;;;;;;;;;5046112;28;20071;-76
2023/06/28 10:47:12;;;;;;;26.60;17.70;;;;;;;;;;5053367;28;20477;-77
2023/06/28 10:49:40;;;;;;;24.20;18.02;;;;;;;;;;5048015;28;20041;-76
2023/06/28 10:52:12;;;;;;;22.88;17.60;;;;;;;;;;5050349;28;20045;-76
2023/06/28 10:54:38;;;;;;;23.02;17.67;;;;;;;;;;5048722;28;20069;-77
2023/06/28 10:57:11;;;;;;;29.83;20.50;;;;;;;;;;5052136;28;20040;-77
2023/06/28 10:59:40;;;;;;;26.55;19.42;;;;;;;;;;5047441;28;20052;-76
2023/06/28 11:02:06;;;;;;;24.15;18.42;;;;;;;;;;5043059;28;20056;-76
2023/06/28 11:04:32;;;;;;;29.13;19.30;;;;;;;;;;5046591;28;20081;-76
2023/06/28 11:07:08;;;;;;;28.30;18.85;;;;;;;;;;5047954;28;20455;-76
2023/06/28 11:09:34;;;;;;;24.30;19.02;;;;;;;;;;5040306;28;20438;-77
2023/06/28 11:12:00;;;;;;;26.40;20.33;;;;;;;;;;5032615;28;20409;-77
2023/06/28 11:14:30;;;;;;;25.63;19.38;;;;;;;;;;5049717;28;20174;-76
2023/06/28 11:17:15;;;;;;;23.85;18.50;;;;;;;;;;5050788;28;20526;-77
2023/06/28 11:19:42;;;;;;;24.90;18.77;;;;;;;;;;5055489;28;20041;-77
2023/06/28 11:22:08;;;;;;;26.27;19.23;;;;;;;;;;5048262;28;20063;-77
2023/06/28 11:24:34;;;;;;;25.90;19.50;;;;;;;;;;5044049;28;20037;-76
2023/06/28 11:27:00;;;;;;;30.25;19.83;;;;;;;;;;5041271;28;20076;-75
2023/06/28 11:29:27;;;;;;;25.60;20.35;;;;;;;;;;5039895;28;20081;-75
2023/06/28 11:31:53;;;;;;;28.85;21.52;;;;;;;;;;5034975;28;20037;-75
2023/06/28 11:34:20;;;;;;;27.27;20.95;;;;;;;;;;5051756;28;20155;-75
2023/06/28 11:36:48;;;;;;;25.98;21.55;;;;;;;;;;5039093;28;20061;-76
2023/06/28 11:39:17;;;;;;;26.05;21.58;;;;;;;;;;5051430;28;20044;-75
2023/06/28 11:41:44;;;;;;;29.63;19.27;;;;;;;;;;5054471;28;20041;-76
2023/06/28 11:44:12;;;;;;;25.17;17.65;;;;;;;;;;5040593;28;20467;-76
2023/06/28 11:46:38;;;;;;;26.23;18.17;;;;;;;;;;5039815;28;20393;-76
2023/06/28 11:49:04;;;;;;;22.55;16.38;;;;;;;;;;5030507;28;20045;-76
2023/06/28 11:51:31;;;;;;;24.02;17.15;;;;;;;;;;5031881;28;20129;-75
2023/06/28 11:53:57;;;;;;;20.80;13.65;;;;;;;;;;5031635;28;20102;-76
2023/06/28 11:56:35;;;;;;;20.60;12.10;;;;;;;;;;5048736;28;20541;-75
2023/06/28 11:59:13;;;;;;;25.88;17.60;;;;;;;;;;5058205;28;20131;-76
2023/06/28 12:01:39;;;;;;;26.38;20.60;;;;;;;;;;5040800;28;20138;-76
2023/06/28 12:04:21;;;;;;;25.92;20.52;;;;;;;;;;5033563;28;20505;-76
2023/06/28 12:06:48;;;;;;;20.17;14.75;;;;;;;;;;5041797;28;20041;-76
2023/06/28 12:09:20;;;;;;;18.25;12.23;;;;;;;;;;5039565;28;20358;-76
2023/06/28 12:12:00;;;;;;;20.48;11.65;;;;;;;;;;5049983;28;20443;-76
2023/06/28 12:14:30;;;;;;;19.55;12.65;;;;;;;;;;5049708;28;20102;-75
2023/06/28 12:16:57;;;;;;;20.70;11.63;;;;;;;;;;5054590;28;20058;-76
2023/06/28 12:19:33;;;;;;;21.70;11.77;;;;;;;;;;5043126;28;20527;-76
2023/06/28 12:22:02;;;;;;;21.60;12.27;;;;;;;;;;5051553;28;20083;-76
2023/06/28 12:24:28;;;;;;;19.98;11.70;;;;;;;;;;5036928;28;20488;-76
2023/06/28 12:26:55;;;;;;;20.92;11.43;;;;;;;;;;5029907;28;20056;-76
2023/06/28 12:29:22;;;;;;;16.92;10.77;;;;;;;;;;5034813;28;20050;-76
2023/06/28 12:31:50;;;;;;;18.38;11.00;;;;;;;;;;5034373;28;20136;-76
2023/06/28 12:34:22;;;;;;;20.65;11.77;;;;;;;;;;5039130;28;20128;-76
2023/06/28 12:36:55;;;;;;;19.03;11.57;;;;;;;;;;5042936;28;20045;-77
2023/06/28 12:39:28;;;;;;;18.58;12.38;;;;;;;;;;5044742;28;20337;-76
2023/06/28 12:42:17;;;;;;;20.42;12.20;;;;;;;;;;5049200;28;20067;-76
2023/06/28 12:44:51;;;;;;;20.08;11.50;;;;;;;;;;5033182;28;20424;-77
2023/06/28 12:47:20;;;;;;;14.73;11.52;;;;;;;;;;5071399;28;20114;-77
2023/06/28 12:49:46;;;;;;;17.60;12.07;;;;;;;;;;5039925;28;20115;-78
2023/06/28 12:52:13;;;;;;;23.35;12.30;;;;;;;;;;5037766;28;20041;-77
2023/06/28 12:54:39;;;;;;;21.30;12.65;;;;;;;;;;5040905;28;20048;-77
2023/06/28 12:57:05;;;;;;;21.88;12.60;;;;;;;;;;5042820;28;20071;-77
2023/06/28 12:59:32;;;;;;;20.48;12.13;;;;;;;;;;5064055;28;20040;-77
2023/06/28 13:01:58;;;;;;;18.73;11.63;;;;;;;;;;5035265;28;20076;-77
2023/06/28 13:04:26;;;;;;;19.98;11.85;;;;;;;;;;5040030;28;20406;-77
2023/06/28 13:06:52;;;;;;;20.25;12.32;;;;;;;;;;5035560;28;20060;-77
2023/06/28 13:09:19;;;;;;;17.95;11.38;;;;;;;;;;5045858;28;20049;-76
2023/06/28 13:11:49;;;;;;;23.35;12.48;;;;;;;;;;5059639;28;20056;-77
2023/06/28 13:14:15;;;;;;;20.83;12.15;;;;;;;;;;5056720;28;20060;-77
2023/06/28 13:16:42;;;;;;;22.83;12.25;;;;;;;;;;5050768;28;20056;-77
2023/06/28 13:19:08;;;;;;;15.57;10.55;;;;;;;;;;5051589;28;20126;-77
2023/06/28 13:21:34;;;;;;;19.30;11.68;;;;;;;;;;5035516;28;20096;-76
2023/06/28 13:24:00;;;;;;;19.17;12.10;;;;;;;;;;5036364;28;20057;-76
2023/06/28 13:26:26;;;;;;;18.95;12.65;;;;;;;;;;5049710;28;20040;-77
2023/06/28 13:28:52;;;;;;;20.10;11.45;;;;;;;;;;5066517;28;20415;-77
2023/06/28 13:31:18;;;;;;;23.95;14.07;;;;;;;;;;5072220;28;20152;-77
2023/06/28 13:33:44;;;;;;;20.70;13.02;;;;;;;;;;5071508;28;20446;-79
2023/06/28 13:36:10;;;;;;;18.02;12.10;;;;;;;;;;5062299;28;20125;-77
2023/06/28 13:38:36;;;;;;;20.52;11.57;;;;;;;;;;5053203;28;20099;-77
2023/06/28 13:41:03;;;;;;;22.65;14.57;;;;;;;;;;5059329;28;20048;-77
2023/06/28 13:43:29;;;;;;;21.27;12.57;;;;;;;;;;5045745;28;20306;-76
2023/06/28 13:45:55;;;;;;;25.60;13.20;;;;;;;;;;5051328;28;20480;-77
2023/06/28 13:48:22;;;;;;;19.88;12.63;;;;;;;;;;5074105;28;20044;-77
2023/06/28 13:50:48;;;;;;;22.77;13.43;;;;;;;;;;5056311;28;20503;-77
2023/06/28 13:53:14;;;;;;;22.10;12.77;;;;;;;;;;5041531;28;20128;-76
2023/06/28 13:55:41;;;;;;;20.83;12.85;;;;;;;;;;5051743;28;20469;-77
2023/06/28 13:58:07;;;;;;;20.50;11.32;;;;;;;;;;5044376;28;20052;-76
2023/06/28 14:00:34;;;;;;;19.60;11.18;;;;;;;;;;5055211;28;20044;-76
2023/06/28 14:03:00;;;;;;;19.52;12.60;;;;;;;;;;5068063;28;20472;-76
2023/06/28 14:05:26;;;;;;;17.20;11.48;;;;;;;;;;5038483;28;20086;-76
2023/06/28 14:07:54;;;;;;;15.88;11.15;;;;;;;;;;5047191;28;20037;-75
2023/06/28 14:10:20;;;;;;;18.27;10.98;;;;;;;;;;5057293;28;20511;-76
2023/06/28 14:12:50;;;;;;;18.13;12.02;;;;;;;;;;5048423;28;20489;-75
2023/06/28 14:15:16;;;;;;;19.63;12.48;;;;;;;;;;5044403;28;20056;-75
2023/06/28 14:17:42;;;;;;;18.55;11.32;;;;;;;;;;5033100;28;20405;-76
2023/06/28 14:20:09;;;;;;;19.02;10.93;;;;;;;;;;5039535;28;20128;-75
2023/06/28 14:22:35;;;;;;;15.85;11.48;;;;;;;;;;5050815;28;20049;-75
2023/06/28 14:25:01;;;;;;;19.02;11.80;;;;;;;;;;5031746;28;20041;-75
2023/06/28 14:27:27;;;;;;;18.85;11.07;;;;;;;;;;5032663;28;20498;-75
2023/06/28 14:29:53;;;;;;;19.88;12.45;;;;;;;;;;5039475;28;20044;-75